sensor_id;sensor_type;location;lat;lon;timestamp;temperature;humidity
75471;HTU21D;64051;46.320;48.028;2023-03-03T00:01:29;-2.47;65.68
75471;HTU21D;64051;46.320;48.028;2023-03-03T00:03:57;-2.48;65.67
75471;HTU21D;64051;46.320;48.028;2023-03-03T00:06:24;-2.49;65.99
75471;HTU21D;64051;46.320;48.028;2023-03-03T00:08:50;-2.50;65.56
75471;HTU21D;64051;46.320;48.028;2023-03-03T00:11:16;-2.52;65.81
75471;HTU21D;64051;46.320;48.028;2023-03-03T00:16:27;-2.57;65.95
75471;HTU21D;64051;46.320;48.028;2023-03-03T00:18:54;-2.59;66.04
75471;HTU21D;64051;46.320;48.028;2023-03-03T00:21:29;-2.58;65.78
75471;HTU21D;64051;46.320;48.028;2023-03-03T00:24:17;-2.59;66.36
75471;HTU21D;64051;46.320;48.028;2023-03-03T00:26:53;-2.63;65.70
75471;HTU21D;64051;46.320;48.028;2023-03-03T00:29:33;-2.65;65.63
75471;HTU21D;64051;46.320;48.028;2023-03-03T00:32:20;-2.72;65.60
75471;HTU21D;64051;46.320;48.028;2023-03-03T00:34:47;-2.79;65.43
75471;HTU21D;64051;46.320;48.028;2023-03-03T00:37:34;-2.84;65.87
75471;HTU21D;64051;46.320;48.028;2023-03-03T00:42:43;-2.93;65.97
75471;HTU21D;64051;46.320;48.028;2023-03-03T00:45:52;-2.96;66.17
75471;HTU21D;64051;46.320;48.028;2023-03-03T00:50:44;-3.07;66.46
75471;HTU21D;64051;46.320;48.028;2023-03-03T00:53:15;-3.07;66.11
75471;HTU21D;64051;46.320;48.028;2023-03-03T00:55:42;-3.07;67.36
75471;HTU21D;64051;46.320;48.028;2023-03-03T00:58:09;-3.04;67.82
75471;HTU21D;64051;46.320;48.028;2023-03-03T01:00:40;-2.96;67.91
75471;HTU21D;64051;46.320;48.028;2023-03-03T01:03:12;-2.89;67.96
75471;HTU21D;64051;46.320;48.028;2023-03-03T01:05:39;-2.81;67.55
75471;HTU21D;64051;46.320;48.028;2023-03-03T01:08:05;-2.75;67.50
75471;HTU21D;64051;46.320;48.028;2023-03-03T01:10:33;-2.68;67.36
75471;HTU21D;64051;46.320;48.028;2023-03-03T01:13:00;-2.64;67.75
75471;HTU21D;64051;46.320;48.028;2023-03-03T01:15:26;-2.60;68.40
75471;HTU21D;64051;46.320;48.028;2023-03-03T01:17:51;-2.54;67.37
75471;HTU21D;64051;46.320;48.028;2023-03-03T01:20:18;-2.50;68.08
75471;HTU21D;64051;46.320;48.028;2023-03-03T01:22:44;-2.47;67.89
75471;HTU21D;64051;46.320;48.028;2023-03-03T01:25:10;-2.45;68.00
75471;HTU21D;64051;46.320;48.028;2023-03-03T01:27:36;-2.41;67.81
75471;HTU21D;64051;46.320;48.028;2023-03-03T01:30:04;-2.39;67.33
75471;HTU21D;64051;46.320;48.028;2023-03-03T01:32:30;-2.37;67.66
75471;HTU21D;64051;46.320;48.028;2023-03-03T01:34:57;-2.36;67.86
75471;HTU21D;64051;46.320;48.028;2023-03-03T01:37:23;-2.33;67.49
75471;HTU21D;64051;46.320;48.028;2023-03-03T01:39:50;-2.32;67.79
75471;HTU21D;64051;46.320;48.028;2023-03-03T01:42:16;-2.32;67.68
75471;HTU21D;64051;46.320;48.028;2023-03-03T01:44:43;-2.33;67.93
75471;HTU21D;64051;46.320;48.028;2023-03-03T01:47:16;-2.31;67.39
75471;HTU21D;64051;46.320;48.028;2023-03-03T01:50:04;-2.32;68.41
75471;HTU21D;64051;46.320;48.028;2023-03-03T01:52:39;-2.31;67.63
75471;HTU21D;64051;46.320;48.028;2023-03-03T01:55:18;-2.31;67.79
75471;HTU21D;64051;46.320;48.028;2023-03-03T01:57:51;-2.29;67.56
75471;HTU21D;64051;46.320;48.028;2023-03-03T02:00:20;-2.28;67.02
75471;HTU21D;64051;46.320;48.028;2023-03-03T02:02:47;-2.28;67.27
75471;HTU21D;64051;46.320;48.028;2023-03-03T02:05:13;-2.28;67.88
75471;HTU21D;64051;46.320;48.028;2023-03-03T02:07:40;-2.27;67.62
75471;HTU21D;64051;46.320;48.028;2023-03-03T02:10:15;-2.24;67.84
75471;HTU21D;64051;46.320;48.028;2023-03-03T02:12:52;-2.26;67.42
75471;HTU21D;64051;46.320;48.028;2023-03-03T02:15:30;-2.26;68.26
75471;HTU21D;64051;46.320;48.028;2023-03-03T02:18:04;-2.27;67.59
75471;HTU21D;64051;46.320;48.028;2023-03-03T02:23:39;-2.27;68.01
75471;HTU21D;64051;46.320;48.028;2023-03-03T02:26:15;-2.24;68.07
75471;HTU21D;64051;46.320;48.028;2023-03-03T02:28:42;-2.23;67.48
75471;HTU21D;64051;46.320;48.028;2023-03-03T02:31:13;-2.24;67.75
75471;HTU21D;64051;46.320;48.028;2023-03-03T02:33:43;-2.26;68.05
75471;HTU21D;64051;46.320;48.028;2023-03-03T02:36:24;-2.22;67.64
75471;HTU21D;64051;46.320;48.028;2023-03-03T02:39:22;-2.19;67.57
75471;HTU21D;64051;46.320;48.028;2023-03-03T02:41:59;-2.19;67.66
75471;HTU21D;64051;46.320;48.028;2023-03-03T02:44:34;-2.18;67.45
75471;HTU21D;64051;46.320;48.028;2023-03-03T02:47:01;-2.19;67.75
75471;HTU21D;64051;46.320;48.028;2023-03-03T02:49:32;-2.17;67.67
75471;HTU21D;64051;46.320;48.028;2023-03-03T02:51:59;-2.18;67.95
75471;HTU21D;64051;46.320;48.028;2023-03-03T02:54:28;-2.19;67.73
75471;HTU21D;64051;46.320;48.028;2023-03-03T02:56:59;-2.19;68.00
75471;HTU21D;64051;46.320;48.028;2023-03-03T02:59:26;-2.18;67.76
75471;HTU21D;64051;46.320;48.028;2023-03-03T03:01:54;-2.18;67.73
75471;HTU21D;64051;46.320;48.028;2023-03-03T03:04:22;-2.18;67.73
75471;HTU21D;64051;46.320;48.028;2023-03-03T03:06:50;-2.19;67.78
75471;HTU21D;64051;46.320;48.028;2023-03-03T03:09:18;-2.18;67.95
75471;HTU21D;64051;46.320;48.028;2023-03-03T03:11:47;-2.17;67.84
75471;HTU21D;64051;46.320;48.028;2023-03-03T03:14:16;-2.14;67.67
75471;HTU21D;64051;46.320;48.028;2023-03-03T03:16:43;-2.12;67.70
75471;HTU21D;64051;46.320;48.028;2023-03-03T03:19:09;-2.08;67.63
75471;HTU21D;64051;46.320;48.028;2023-03-03T03:21:36;-2.08;67.72
75471;HTU21D;64051;46.320;48.028;2023-03-03T03:24:04;-2.06;67.46
75471;HTU21D;64051;46.320;48.028;2023-03-03T03:26:30;-2.05;67.41
75471;HTU21D;64051;46.320;48.028;2023-03-03T03:28:57;-2.03;67.53
75471;HTU21D;64051;46.320;48.028;2023-03-03T03:31:23;-2.03;67.79
75471;HTU21D;64051;46.320;48.028;2023-03-03T03:33:50;-2.02;67.86
75471;HTU21D;64051;46.320;48.028;2023-03-03T03:36:19;-1.99;67.74
75471;HTU21D;64051;46.320;48.028;2023-03-03T03:38:45;-1.97;67.62
75471;HTU21D;64051;46.320;48.028;2023-03-03T03:41:11;-1.92;67.55
75471;HTU21D;64051;46.320;48.028;2023-03-03T03:43:39;-1.86;67.43
75471;HTU21D;64051;46.320;48.028;2023-03-03T03:46:05;-1.82;67.43
75471;HTU21D;64051;46.320;48.028;2023-03-03T03:48:32;-1.77;67.39
75471;HTU21D;64051;46.320;48.028;2023-03-03T03:50:59;-1.73;67.40
75471;HTU21D;64051;46.320;48.028;2023-03-03T03:53:29;-1.69;67.40
75471;HTU21D;64051;46.320;48.028;2023-03-03T03:55:55;-1.62;67.31
75471;HTU21D;64051;46.320;48.028;2023-03-03T03:58:22;-1.56;67.19
75471;HTU21D;64051;46.320;48.028;2023-03-03T04:01:04;-1.49;67.12
75471;HTU21D;64051;46.320;48.028;2023-03-03T04:03:33;-1.43;67.08
75471;HTU21D;64051;46.320;48.028;2023-03-03T04:06:00;-1.41;66.75
75471;HTU21D;64051;46.320;48.028;2023-03-03T04:08:26;-1.38;66.78
75471;HTU21D;64051;46.320;48.028;2023-03-03T04:10:53;-1.31;66.64
75471;HTU21D;64051;46.320;48.028;2023-03-03T04:13:19;-1.26;66.51
75471;HTU21D;64051;46.320;48.028;2023-03-03T04:15:45;-1.23;66.42
75471;HTU21D;64051;46.320;48.028;2023-03-03T04:18:11;-1.16;66.36
75471;HTU21D;64051;46.320;48.028;2023-03-03T04:20:39;-1.10;66.29
75471;HTU21D;64051;46.320;48.028;2023-03-03T04:23:06;-1.04;66.23
75471;HTU21D;64051;46.320;48.028;2023-03-03T04:25:33;-0.97;66.00
75471;HTU21D;64051;46.320;48.028;2023-03-03T04:27:59;-0.93;65.98
75471;HTU21D;64051;46.320;48.028;2023-03-03T04:30:25;-0.85;65.69
75471;HTU21D;64051;46.320;48.028;2023-03-03T04:32:54;-0.76;65.98
75471;HTU21D;64051;46.320;48.028;2023-03-03T04:35:25;-0.69;65.82
75471;HTU21D;64051;46.320;48.028;2023-03-03T04:37:52;-0.62;65.75
75471;HTU21D;64051;46.320;48.028;2023-03-03T04:40:19;-0.55;65.69
75471;HTU21D;64051;46.320;48.028;2023-03-03T04:42:48;-0.47;64.73
75471;HTU21D;64051;46.320;48.028;2023-03-03T04:45:14;-0.40;65.32
75471;HTU21D;64051;46.320;48.028;2023-03-03T04:47:40;-0.31;65.46
75471;HTU21D;64051;46.320;48.028;2023-03-03T04:50:07;-0.23;63.83
75471;HTU21D;64051;46.320;48.028;2023-03-03T04:52:34;-0.14;65.04
75471;HTU21D;64051;46.320;48.028;2023-03-03T04:55:01;-0.05;64.91
75471;HTU21D;64051;46.320;48.028;2023-03-03T04:57:27;0.06;64.97
75471;HTU21D;64051;46.320;48.028;2023-03-03T04:59:53;0.16;64.61
75471;HTU21D;64051;46.320;48.028;2023-03-03T05:02:19;0.28;64.79
75471;HTU21D;64051;46.320;48.028;2023-03-03T05:04:46;0.40;63.90
75471;HTU21D;64051;46.320;48.028;2023-03-03T05:07:15;0.51;64.38
75471;HTU21D;64051;46.320;48.028;2023-03-03T05:09:42;0.62;64.35
75471;HTU21D;64051;46.320;48.028;2023-03-03T05:12:08;0.74;63.11
75471;HTU21D;64051;46.320;48.028;2023-03-03T05:14:34;0.84;63.86
75471;HTU21D;64051;46.320;48.028;2023-03-03T05:17:00;0.95;63.95
75471;HTU21D;64051;46.320;48.028;2023-03-03T05:19:26;1.05;63.82
75471;HTU21D;64051;46.320;48.028;2023-03-03T05:21:58;1.16;62.64
75471;HTU21D;64051;46.320;48.028;2023-03-03T05:24:24;1.29;63.57
75471;HTU21D;64051;46.320;48.028;2023-03-03T05:26:53;1.40;63.29
75471;HTU21D;64051;46.320;48.028;2023-03-03T05:29:20;1.52;63.22
75471;HTU21D;64051;46.320;48.028;2023-03-03T05:31:45;1.63;62.12
75471;HTU21D;64051;46.320;48.028;2023-03-03T05:34:12;1.75;60.31
75471;HTU21D;64051;46.320;48.028;2023-03-03T05:36:38;1.83;61.89
75471;HTU21D;64051;46.320;48.028;2023-03-03T05:39:04;1.92;61.70
75471;HTU21D;64051;46.320;48.028;2023-03-03T05:41:30;2.00;61.41
75471;HTU21D;64051;46.320;48.028;2023-03-03T05:43:56;2.10;61.39
75471;HTU21D;64051;46.320;48.028;2023-03-03T05:46:22;2.21;61.81
75471;HTU21D;64051;46.320;48.028;2023-03-03T05:48:48;2.34;62.01
75471;HTU21D;64051;46.320;48.028;2023-03-03T05:51:16;2.47;62.23
75471;HTU21D;64051;46.320;48.028;2023-03-03T05:53:45;2.62;61.57
75471;HTU21D;64051;46.320;48.028;2023-03-03T05:56:11;2.75;61.60
75471;HTU21D;64051;46.320;48.028;2023-03-03T05:58:37;2.88;60.59
75471;HTU21D;64051;46.320;48.028;2023-03-03T06:01:03;3.00;61.50
75471;HTU21D;64051;46.320;48.028;2023-03-03T06:03:32;3.15;61.14
75471;HTU21D;64051;46.320;48.028;2023-03-03T06:05:58;3.27;60.64
75471;HTU21D;64051;46.320;48.028;2023-03-03T06:08:23;3.39;61.09
75471;HTU21D;64051;46.320;48.028;2023-03-03T06:10:52;3.49;60.74
75471;HTU21D;64051;46.320;48.028;2023-03-03T06:13:18;3.61;59.68
75471;HTU21D;64051;46.320;48.028;2023-03-03T06:15:45;3.74;60.08
75471;HTU21D;64051;46.320;48.028;2023-03-03T06:18:10;3.86;59.45
75471;HTU21D;64051;46.320;48.028;2023-03-03T06:20:37;4.01;59.15
75471;HTU21D;64051;46.320;48.028;2023-03-03T06:23:03;4.15;59.01
75471;HTU21D;64051;46.320;48.028;2023-03-03T06:25:30;4.31;58.61
75471;HTU21D;64051;46.320;48.028;2023-03-03T06:27:59;4.48;57.93
75471;HTU21D;64051;46.320;48.028;2023-03-03T06:30:25;4.63;58.05
75471;HTU21D;64051;46.320;48.028;2023-03-03T06:32:53;4.78;57.19
75471;HTU21D;64051;46.320;48.028;2023-03-03T06:35:19;4.89;58.16
75471;HTU21D;64051;46.320;48.028;2023-03-03T06:37:45;5.04;58.03
75471;HTU21D;64051;46.320;48.028;2023-03-03T06:40:11;5.20;55.18
75471;HTU21D;64051;46.320;48.028;2023-03-03T06:42:37;5.28;54.69
75471;HTU21D;64051;46.320;48.028;2023-03-03T06:45:07;5.28;55.42
75471;HTU21D;64051;46.320;48.028;2023-03-03T06:47:33;5.27;52.60
75471;HTU21D;64051;46.320;48.028;2023-03-03T06:49:59;5.24;54.55
75471;HTU21D;64051;46.320;48.028;2023-03-03T06:52:26;5.27;54.83
75471;HTU21D;64051;46.320;48.028;2023-03-03T06:54:54;5.37;55.29
75471;HTU21D;64051;46.320;48.028;2023-03-03T06:57:30;5.45;55.36
75471;HTU21D;64051;46.320;48.028;2023-03-03T07:00:01;5.50;54.84
75471;HTU21D;64051;46.320;48.028;2023-03-03T07:02:31;5.55;54.76
75471;HTU21D;64051;46.320;48.028;2023-03-03T07:04:57;5.55;54.49
75471;HTU21D;64051;46.320;48.028;2023-03-03T07:07:24;5.54;54.02
75471;HTU21D;64051;46.320;48.028;2023-03-03T07:09:52;5.56;53.86
75471;HTU21D;64051;46.320;48.028;2023-03-03T07:12:25;5.64;53.88
75471;HTU21D;64051;46.320;48.028;2023-03-03T07:14:57;5.71;51.88
75471;HTU21D;64051;46.320;48.028;2023-03-03T07:17:24;5.77;50.94
75471;HTU21D;64051;46.320;48.028;2023-03-03T07:19:50;5.81;53.12
75471;HTU21D;64051;46.320;48.028;2023-03-03T07:22:20;5.86;52.04
75471;HTU21D;64051;46.320;48.028;2023-03-03T07:24:58;5.93;48.07
75471;HTU21D;64051;46.320;48.028;2023-03-03T07:27:28;5.91;51.62
75471;HTU21D;64051;46.320;48.028;2023-03-03T07:32:47;6.07;46.44
75471;HTU21D;64051;46.320;48.028;2023-03-03T07:35:42;6.15;48.76
75471;HTU21D;64051;46.320;48.028;2023-03-03T07:38:23;6.27;51.22
75471;HTU21D;64051;46.320;48.028;2023-03-03T07:40:52;6.40;52.49
75471;HTU21D;64051;46.320;48.028;2023-03-03T07:43:27;6.48;51.59
75471;HTU21D;64051;46.320;48.028;2023-03-03T07:48:34;6.67;51.21
75471;HTU21D;64051;46.320;48.028;2023-03-03T07:51:25;6.74;51.56
75471;HTU21D;64051;46.320;48.028;2023-03-03T07:53:53;6.83;50.68
75471;HTU21D;64051;46.320;48.028;2023-03-03T07:56:26;6.91;51.33
75471;HTU21D;64051;46.320;48.028;2023-03-03T07:58:53;6.97;50.90
75471;HTU21D;64051;46.320;48.028;2023-03-03T08:01:34;7.03;51.40
75471;HTU21D;64051;46.320;48.028;2023-03-03T08:06:57;7.16;48.79
75471;HTU21D;64051;46.320;48.028;2023-03-03T08:09:36;7.19;48.47
75471;HTU21D;64051;46.320;48.028;2023-03-03T08:14:37;7.37;50.39
75471;HTU21D;64051;46.320;48.028;2023-03-03T08:17:24;7.48;46.10
75471;HTU21D;64051;46.320;48.028;2023-03-03T08:19:52;7.50;49.37
75471;HTU21D;64051;46.320;48.028;2023-03-03T08:22:32;7.52;48.96
75471;HTU21D;64051;46.320;48.028;2023-03-03T08:25:03;7.57;50.05
75471;HTU21D;64051;46.320;48.028;2023-03-03T08:27:29;7.65;50.41
75471;HTU21D;64051;46.320;48.028;2023-03-03T08:29:55;7.73;49.88
75471;HTU21D;64051;46.320;48.028;2023-03-03T08:32:23;7.77;47.23
75471;HTU21D;64051;46.320;48.028;2023-03-03T08:34:55;7.73;48.35
75471;HTU21D;64051;46.320;48.028;2023-03-03T08:37:21;7.73;48.28
75471;HTU21D;64051;46.320;48.028;2023-03-03T08:39:47;7.64;48.18
75471;HTU21D;64051;46.320;48.028;2023-03-03T08:42:19;7.62;47.51
75471;HTU21D;64051;46.320;48.028;2023-03-03T08:44:47;7.59;48.57
75471;HTU21D;64051;46.320;48.028;2023-03-03T08:47:13;7.56;47.96
75471;HTU21D;64051;46.320;48.028;2023-03-03T08:49:39;7.50;47.47
75471;HTU21D;64051;46.320;48.028;2023-03-03T08:52:05;7.45;47.26
75471;HTU21D;64051;46.320;48.028;2023-03-03T08:54:33;7.40;47.52
75471;HTU21D;64051;46.320;48.028;2023-03-03T08:56:59;7.40;48.08
75471;HTU21D;64051;46.320;48.028;2023-03-03T08:59:25;7.44;48.08
75471;HTU21D;64051;46.320;48.028;2023-03-03T09:02:04;7.46;44.09
75471;HTU21D;64051;46.320;48.028;2023-03-03T09:04:30;7.45;47.28
75471;HTU21D;64051;46.320;48.028;2023-03-03T09:06:56;7.48;47.63
75471;HTU21D;64051;46.320;48.028;2023-03-03T09:09:22;7.49;47.25
75471;HTU21D;64051;46.320;48.028;2023-03-03T09:11:48;7.53;47.95
75471;HTU21D;64051;46.320;48.028;2023-03-03T09:14:16;7.56;47.44
75471;HTU21D;64051;46.320;48.028;2023-03-03T09:16:53;7.59;46.18
75471;HTU21D;64051;46.320;48.028;2023-03-03T09:19:27;7.61;45.65
75471;HTU21D;64051;46.320;48.028;2023-03-03T09:22:02;7.63;45.76
75471;HTU21D;64051;46.320;48.028;2023-03-03T09:24:36;7.59;46.73
75471;HTU21D;64051;46.320;48.028;2023-03-03T09:27:14;7.54;41.01
75471;HTU21D;64051;46.320;48.028;2023-03-03T09:29:49;7.46;46.67
75471;HTU21D;64051;46.320;48.028;2023-03-03T09:32:33;7.44;47.03
75471;HTU21D;64051;46.320;48.028;2023-03-03T09:35:36;7.43;43.09
75471;HTU21D;64051;46.320;48.028;2023-03-03T09:38:26;7.42;45.58
75471;HTU21D;64051;46.320;48.028;2023-03-03T09:43:50;7.39;45.95
75471;HTU21D;64051;46.320;48.028;2023-03-03T09:46:44;7.39;47.38
75471;HTU21D;64051;46.320;48.028;2023-03-03T09:49:28;7.38;46.14
75471;HTU21D;64051;46.320;48.028;2023-03-03T09:57:29;7.41;46.14
75471;HTU21D;64051;46.320;48.028;2023-03-03T10:03:02;7.42;47.59
75471;HTU21D;64051;46.320;48.028;2023-03-03T10:05:57;7.45;45.08
75471;HTU21D;64051;46.320;48.028;2023-03-03T10:08:45;7.44;47.38
75471;HTU21D;64051;46.320;48.028;2023-03-03T10:11:31;7.37;46.64
75471;HTU21D;64051;46.320;48.028;2023-03-03T10:22:52;7.77;46.67
75471;HTU21D;64051;46.320;48.028;2023-03-03T10:40:00;8.28;42.69
75471;HTU21D;64051;46.320;48.028;2023-03-03T10:51:54;8.16;40.54
75471;HTU21D;64051;46.320;48.028;2023-03-03T11:00:00;8.24;43.06
75471;HTU21D;64051;46.320;48.028;2023-03-03T11:05:28;8.42;43.93
75471;HTU21D;64051;46.320;48.028;2023-03-03T11:08:00;8.46;44.90
75471;HTU21D;64051;46.320;48.028;2023-03-03T11:13:23;8.49;42.71
75471;HTU21D;64051;46.320;48.028;2023-03-03T11:21:46;8.78;41.54
75471;HTU21D;64051;46.320;48.028;2023-03-03T11:38:21;8.48;44.60
75471;HTU21D;64051;46.320;48.028;2023-03-03T11:41:08;8.28;43.46
75471;HTU21D;64051;46.320;48.028;2023-03-03T11:44:01;8.24;45.38
75471;HTU21D;64051;46.320;48.028;2023-03-03T11:46:34;8.34;45.43
75471;HTU21D;64051;46.320;48.028;2023-03-03T11:49:15;8.34;44.26
75471;HTU21D;64051;46.320;48.028;2023-03-03T11:54:52;8.16;40.37
75471;HTU21D;64051;46.320;48.028;2023-03-03T11:57:36;8.22;44.96
75471;HTU21D;64051;46.320;48.028;2023-03-03T12:13:21;8.23;42.96
75471;HTU21D;64051;46.320;48.028;2023-03-03T12:35:10;7.92;44.77
75471;HTU21D;64051;46.320;48.028;2023-03-03T12:38:04;7.87;42.20
75471;HTU21D;64051;46.320;48.028;2023-03-03T12:40:44;7.81;45.13
75471;HTU21D;64051;46.320;48.028;2023-03-03T12:43:23;7.74;45.03
75471;HTU21D;64051;46.320;48.028;2023-03-03T12:57:28;7.53;45.05
75471;HTU21D;64051;46.320;48.028;2023-03-03T13:00:18;7.49;44.79
75471;HTU21D;64051;46.320;48.028;2023-03-03T13:06:10;7.47;45.57
75471;HTU21D;64051;46.320;48.028;2023-03-03T13:11:41;7.34;46.02
75471;HTU21D;64051;46.320;48.028;2023-03-03T13:19:40;7.05;46.28
75471;HTU21D;64051;46.320;48.028;2023-03-03T13:22:17;6.97;46.58
75471;HTU21D;64051;46.320;48.028;2023-03-03T13:27:58;6.78;46.74
75471;HTU21D;64051;46.320;48.028;2023-03-03T13:30:34;6.68;45.45
75471;HTU21D;64051;46.320;48.028;2023-03-03T13:36:08;6.51;46.62
75471;HTU21D;64051;46.320;48.028;2023-03-03T13:38:50;6.42;46.96
75471;HTU21D;64051;46.320;48.028;2023-03-03T13:41:44;6.37;46.96
75471;HTU21D;64051;46.320;48.028;2023-03-03T13:52:22;6.09;47.82
75471;HTU21D;64051;46.320;48.028;2023-03-03T13:55:10;6.01;47.99
75471;HTU21D;64051;46.320;48.028;2023-03-03T13:57:58;5.96;48.08
75471;HTU21D;64051;46.320;48.028;2023-03-03T14:06:21;5.71;48.56
75471;HTU21D;64051;46.320;48.028;2023-03-03T14:14:56;5.43;48.82
75471;HTU21D;64051;46.320;48.028;2023-03-03T14:20:34;5.25;48.84
75471;HTU21D;64051;46.320;48.028;2023-03-03T14:23:50;5.15;49.20
75471;HTU21D;64051;46.320;48.028;2023-03-03T14:25:56;5.05;49.22
75471;HTU21D;64051;46.320;48.028;2023-03-03T14:28:25;4.95;49.40
75471;HTU21D;64051;46.320;48.028;2023-03-03T14:30:54;4.83;49.44
75471;HTU21D;64051;46.320;48.028;2023-03-03T14:33:29;4.75;49.46
75471;HTU21D;64051;46.320;48.028;2023-03-03T14:41:39;4.42;50.34
75471;HTU21D;64051;46.320;48.028;2023-03-03T14:49:37;4.04;50.69
75471;HTU21D;64051;46.320;48.028;2023-03-03T14:54:47;3.83;51.14
75471;HTU21D;64051;46.320;48.028;2023-03-03T14:57:19;3.72;51.25
75471;HTU21D;64051;46.320;48.028;2023-03-03T15:02:43;3.50;51.46
75471;HTU21D;64051;46.320;48.028;2023-03-03T15:05:23;3.41;51.48
75471;HTU21D;64051;46.320;48.028;2023-03-03T15:08:08;3.32;51.58
75471;HTU21D;64051;46.320;48.028;2023-03-03T15:13:32;3.13;51.89
75471;HTU21D;64051;46.320;48.028;2023-03-03T15:18:29;2.95;52.17
75471;HTU21D;64051;46.320;48.028;2023-03-03T15:21:18;2.88;52.24
75471;HTU21D;64051;46.320;48.028;2023-03-03T15:26:46;2.73;52.35
75471;HTU21D;64051;46.320;48.028;2023-03-03T15:32:11;2.57;52.46
75471;HTU21D;64051;46.320;48.028;2023-03-03T15:35:20;2.47;52.65
75471;HTU21D;64051;46.320;48.028;2023-03-03T15:43:21;2.27;52.79
75471;HTU21D;64051;46.320;48.028;2023-03-03T15:49:03;2.12;53.13
75471;HTU21D;64051;46.320;48.028;2023-03-03T15:51:50;2.05;53.46
75471;HTU21D;64051;46.320;48.028;2023-03-03T15:54:35;1.97;53.99
75471;HTU21D;64051;46.320;48.028;2023-03-03T16:05:51;1.83;53.70
75471;HTU21D;64051;46.320;48.028;2023-03-03T16:22:11;1.60;54.42
75471;HTU21D;64051;46.320;48.028;2023-03-03T16:27:17;1.49;54.54
75471;HTU21D;64051;46.320;48.028;2023-03-03T16:33:05;1.40;54.44
75471;HTU21D;64051;46.320;48.028;2023-03-03T16:35:41;1.37;54.60
75471;HTU21D;64051;46.320;48.028;2023-03-03T16:38:18;1.31;54.88
75471;HTU21D;64051;46.320;48.028;2023-03-03T16:41:12;1.25;54.81
75471;HTU21D;64051;46.320;48.028;2023-03-03T16:46:53;1.13;54.92
75471;HTU21D;64051;46.320;48.028;2023-03-03T16:49:25;1.10;55.04
75471;HTU21D;64051;46.320;48.028;2023-03-03T16:52:07;1.10;55.33
75471;HTU21D;64051;46.320;48.028;2023-03-03T16:54:49;1.06;55.56
75471;HTU21D;64051;46.320;48.028;2023-03-03T17:11:19;0.95;55.82
75471;HTU21D;64051;46.320;48.028;2023-03-03T17:17:17;0.89;55.87
75471;HTU21D;64051;46.320;48.028;2023-03-03T17:22:45;0.78;56.11
75471;HTU21D;64051;46.320;48.028;2023-03-03T17:25:45;0.71;56.06
75471;HTU21D;64051;46.320;48.028;2023-03-03T17:28:26;0.64;56.05
75471;HTU21D;64051;46.320;48.028;2023-03-03T17:36:49;0.53;56.45
75471;HTU21D;64051;46.320;48.028;2023-03-03T17:42:08;0.45;56.48
75471;HTU21D;64051;46.320;48.028;2023-03-03T17:44:49;0.43;56.61
75471;HTU21D;64051;46.320;48.028;2023-03-03T17:50:31;0.36;57.01
75471;HTU21D;64051;46.320;48.028;2023-03-03T17:58:40;0.27;56.83
75471;HTU21D;64051;46.320;48.028;2023-03-03T18:01:27;0.23;57.26
75471;HTU21D;64051;46.320;48.028;2023-03-03T18:05:01;0.18;56.97
75471;HTU21D;64051;46.320;48.028;2023-03-03T18:26:43;-0.01;57.56
75471;HTU21D;64051;46.320;48.028;2023-03-03T18:29:30;-0.03;58.21
75471;HTU21D;64051;46.320;48.028;2023-03-03T18:32:04;-0.06;57.84
75471;HTU21D;64051;46.320;48.028;2023-03-03T18:37:57;-0.11;57.74
75471;HTU21D;64051;46.320;48.028;2023-03-03T18:40:34;-0.13;57.99
75471;HTU21D;64051;46.320;48.028;2023-03-03T18:49:09;-0.26;58.31
75471;HTU21D;64051;46.320;48.028;2023-03-03T19:02:34;-0.45;58.38
75471;HTU21D;64051;46.320;48.028;2023-03-03T19:12:57;-0.61;58.50
75471;HTU21D;64051;46.320;48.028;2023-03-03T19:21:06;-0.71;58.75
75471;HTU21D;64051;46.320;48.028;2023-03-03T19:23:51;-0.74;58.82
75471;HTU21D;64051;46.320;48.028;2023-03-03T19:26:36;-0.77;58.78
75471;HTU21D;64051;46.320;48.028;2023-03-03T19:29:23;-0.80;58.82
75471;HTU21D;64051;46.320;48.028;2023-03-03T19:32:12;-0.81;58.93
75471;HTU21D;64051;46.320;48.028;2023-03-03T19:37:39;-0.86;59.14
75471;HTU21D;64051;46.320;48.028;2023-03-03T19:40:31;-0.88;59.13
75471;HTU21D;64051;46.320;48.028;2023-03-03T19:46:25;-0.93;59.39
75471;HTU21D;64051;46.320;48.028;2023-03-03T19:49:20;-0.94;59.32
75471;HTU21D;64051;46.320;48.028;2023-03-03T19:54:43;-0.98;59.21
75471;HTU21D;64051;46.320;48.028;2023-03-03T20:06:01;-0.98;59.61
75471;HTU21D;64051;46.320;48.028;2023-03-03T20:14:41;-1.00;60.09
75471;HTU21D;64051;46.320;48.028;2023-03-03T20:17:36;-1.02;60.14
75471;HTU21D;64051;46.320;48.028;2023-03-03T20:20:31;-1.02;59.99
75471;HTU21D;64051;46.320;48.028;2023-03-03T20:23:16;-1.05;59.96
75471;HTU21D;64051;46.320;48.028;2023-03-03T20:25:57;-1.06;59.94
75471;HTU21D;64051;46.320;48.028;2023-03-03T20:34:21;-1.15;59.90
75471;HTU21D;64051;46.320;48.028;2023-03-03T20:37:05;-1.17;60.03
75471;HTU21D;64051;46.320;48.028;2023-03-03T20:48:09;-1.31;60.34
75471;HTU21D;64051;46.320;48.028;2023-03-03T20:50:52;-1.33;60.54
75471;HTU21D;64051;46.320;48.028;2023-03-03T20:59:44;-1.43;60.72
75471;HTU21D;64051;46.320;48.028;2023-03-03T21:05:16;-1.46;60.60
75471;HTU21D;64051;46.320;48.028;2023-03-03T21:08:03;-1.45;60.80
75471;HTU21D;64051;46.320;48.028;2023-03-03T21:10:36;-1.48;60.99
75471;HTU21D;64051;46.320;48.028;2023-03-03T21:16:04;-1.48;61.16
75471;HTU21D;64051;46.320;48.028;2023-03-03T21:18:31;-1.47;60.98
75471;HTU21D;64051;46.320;48.028;2023-03-03T21:20:57;-1.44;60.95
75471;HTU21D;64051;46.320;48.028;2023-03-03T21:23:23;-1.41;61.07
75471;HTU21D;64051;46.320;48.028;2023-03-03T21:25:50;-1.38;61.07
75471;HTU21D;64051;46.320;48.028;2023-03-03T21:36:09;-1.28;61.81
75471;HTU21D;64051;46.320;48.028;2023-03-03T21:38:39;-1.26;61.37
75471;HTU21D;64051;46.320;48.028;2023-03-03T21:41:06;-1.24;61.25
75471;HTU21D;64051;46.320;48.028;2023-03-03T21:43:34;-1.23;61.24
75471;HTU21D;64051;46.320;48.028;2023-03-03T21:46:00;-1.20;61.44
75471;HTU21D;64051;46.320;48.028;2023-03-03T21:48:26;-1.19;61.40
75471;HTU21D;64051;46.320;48.028;2023-03-03T21:50:52;-1.18;61.07
75471;HTU21D;64051;46.320;48.028;2023-03-03T21:53:18;-1.18;61.02
75471;HTU21D;64051;46.320;48.028;2023-03-03T21:55:45;-1.19;61.15
75471;HTU21D;64051;46.320;48.028;2023-03-03T21:58:15;-1.20;61.38
75471;HTU21D;64051;46.320;48.028;2023-03-03T22:00:41;-1.19;61.27
75471;HTU21D;64051;46.320;48.028;2023-03-03T22:03:11;-1.20;62.25
75471;HTU21D;64051;46.320;48.028;2023-03-03T22:05:38;-1.21;61.86
75471;HTU21D;64051;46.320;48.028;2023-03-03T22:08:05;-1.23;61.79
75471;HTU21D;64051;46.320;48.028;2023-03-03T22:10:31;-1.21;61.72
75471;HTU21D;64051;46.320;48.028;2023-03-03T22:12:57;-1.20;61.67
75471;HTU21D;64051;46.320;48.028;2023-03-03T22:15:23;-1.18;61.98
75471;HTU21D;64051;46.320;48.028;2023-03-03T22:17:49;-1.16;62.03
75471;HTU21D;64051;46.320;48.028;2023-03-03T22:20:16;-1.16;61.63
75471;HTU21D;64051;46.320;48.028;2023-03-03T22:22:42;-1.14;61.73
75471;HTU21D;64051;46.320;48.028;2023-03-03T22:25:08;-1.12;62.02